Time;durP1;ratioP1;P1;durP2;ratioP2;P2;SDS_P1;SDS_P2;PMS_P1;PMS_P2;Temp;Humidity;BMP_temperature;BMP_pressure;BME280_temperature;BME280_humidity;BME280_pressure;Samples;Min_cycle;Max_cycle;Signal;HPM_P1;HPM_P2
2023/09/13 00:01:41;;;;;;;22.27;20.07;;;;;;;;;;5133485;28;20437;-62
2023/09/13 00:04:08;;;;;;;22.23;20.13;;;;;;;;;;5133441;28;20469;-62
2023/09/13 00:06:36;;;;;;;24.40;21.93;;;;;;;;;;5133763;28;20477;-62
2023/09/13 00:09:04;;;;;;;24.87;22.47;;;;;;;;;;5133631;28;20460;-62
2023/09/13 00:11:31;;;;;;;26.17;23.67;;;;;;;;;;5134036;28;20430;-62
2023/09/13 00:13:58;;;;;;;26.47;22.07;;;;;;;;;;5133359;27;20960;-62
2023/09/13 00:16:25;;;;;;;26.00;23.00;;;;;;;;;;5138050;27;20532;-62
2023/09/13 00:18:53;;;;;;;26.17;22.80;;;;;;;;;;5137778;27;20439;-62
2023/09/13 00:21:20;;;;;;;25.93;23.23;;;;;;;;;;5137528;27;20949;-62
2023/09/13 00:23:49;;;;;;;26.00;23.30;;;;;;;;;;5137168;27;20966;-62
2023/09/13 00:26:16;;;;;;;27.67;22.90;;;;;;;;;;5137774;27;20892;-62
2023/09/13 00:28:43;;;;;;;29.17;25.20;;;;;;;;;;5137672;27;20786;-62
2023/09/13 00:31:10;;;;;;;27.70;24.80;;;;;;;;;;5137274;27;20518;-62
2023/09/13 00:33:38;;;;;;;27.40;24.60;;;;;;;;;;5137519;27;20528;-62
2023/09/13 00:36:05;;;;;;;27.50;24.70;;;;;;;;;;5137309;27;20444;-62
2023/09/13 00:38:32;;;;;;;25.83;22.83;;;;;;;;;;5137438;27;20436;-62
2023/09/13 00:41:00;;;;;;;28.80;25.20;;;;;;;;;;5137879;27;20448;-62
2023/09/13 00:43:28;;;;;;;27.70;24.80;;;;;;;;;;5136956;27;20997;-82
2023/09/13 00:45:55;;;;;;;30.13;26.50;;;;;;;;;;5137427;27;20540;-62
2023/09/13 00:48:23;;;;;;;28.50;23.90;;;;;;;;;;5137280;27;20441;-61
2023/09/13 00:50:51;;;;;;;26.50;23.60;;;;;;;;;;5137306;27;20541;-61
2023/09/13 00:53:19;;;;;;;30.33;23.87;;;;;;;;;;5136795;27;20436;-63
2023/09/13 00:55:47;;;;;;;28.43;25.37;;;;;;;;;;5137125;27;20528;-62
2023/09/13 00:58:15;;;;;;;30.27;26.10;;;;;;;;;;5136726;27;20902;-62
2023/09/13 01:00:43;;;;;;;28.63;25.43;;;;;;;;;;5137712;27;20441;-63
2023/09/13 01:03:10;;;;;;;29.70;26.57;;;;;;;;;;5137373;27;20437;-62
2023/09/13 01:05:38;;;;;;;30.07;26.83;;;;;;;;;;5136816;27;20841;-62
2023/09/13 01:08:05;;;;;;;29.60;26.40;;;;;;;;;;5136486;27;20437;-62
2023/09/13 01:10:32;;;;;;;28.30;25.17;;;;;;;;;;5136773;27;20521;-62
2023/09/13 01:12:59;;;;;;;28.27;25.37;;;;;;;;;;5136951;27;20442;-62
2023/09/13 01:15:30;;;;;;;28.83;24.53;;;;;;;;;;5136747;27;20532;-61
2023/09/13 01:17:59;;;;;;;33.70;25.73;;;;;;;;;;5136618;27;20426;-61
2023/09/13 01:20:35;;;;;;;29.00;24.27;;;;;;;;;;5136559;27;20441;-61
2023/09/13 01:23:12;;;;;;;25.90;23.03;;;;;;;;;;5136855;27;20502;-61
2023/09/13 01:25:54;;;;;;;27.80;25.00;;;;;;;;;;5136191;27;20494;-61
2023/09/13 01:28:39;;;;;;;30.87;22.93;;;;;;;;;;5137141;27;20429;-61
2023/09/13 01:31:09;;;;;;;31.83;26.90;;;;;;;;;;5136897;27;20454;-61
2023/09/13 01:33:36;;;;;;;28.60;25.67;;;;;;;;;;5136721;27;20525;-61
2023/09/13 01:36:03;;;;;;;30.97;27.30;;;;;;;;;;5136044;27;20477;-61
2023/09/13 01:38:31;;;;;;;30.03;26.80;;;;;;;;;;5136405;27;20436;-61
2023/09/13 01:41:02;;;;;;;34.30;30.60;;;;;;;;;;5135853;27;20444;-61
2023/09/13 01:43:30;;;;;;;36.13;29.40;;;;;;;;;;5136231;27;20436;-61
2023/09/13 01:45:58;;;;;;;35.00;31.20;;;;;;;;;;5136112;27;20802;-61
2023/09/13 01:48:27;;;;;;;26.90;23.50;;;;;;;;;;5135929;27;20434;-61
2023/09/13 01:50:54;;;;;;;20.37;17.67;;;;;;;;;;5136046;27;20437;-61
2023/09/13 01:53:22;;;;;;;20.67;18.57;;;;;;;;;;5136100;27;20447;-61
2023/09/13 01:55:49;;;;;;;15.30;12.47;;;;;;;;;;5136125;27;20846;-61
2023/09/13 01:58:16;;;;;;;12.60;8.97;;;;;;;;;;5136481;27;20460;-62
2023/09/13 02:00:43;;;;;;;11.10;10.10;;;;;;;;;;5136060;27;20443;-62
2023/09/13 02:03:10;;;;;;;14.93;10.70;;;;;;;;;;5135614;27;20441;-63
2023/09/13 02:05:40;;;;;;;9.37;7.87;;;;;;;;;;5135779;27;20478;-63
2023/09/13 02:08:08;;;;;;;10.03;8.30;;;;;;;;;;5135928;27;20847;-63
2023/09/13 02:10:36;;;;;;;15.20;8.67;;;;;;;;;;5135603;27;20434;-63
2023/09/13 02:13:03;;;;;;;13.67;8.03;;;;;;;;;;5135302;27;20437;-63
2023/09/13 02:15:31;;;;;;;8.23;7.33;;;;;;;;;;5135762;27;20969;-63
2023/09/13 02:17:58;;;;;;;8.17;6.70;;;;;;;;;;5136101;27;20445;-63
2023/09/13 02:20:25;;;;;;;7.57;5.80;;;;;;;;;;5135147;27;20525;-63
2023/09/13 02:22:53;;;;;;;8.87;5.73;;;;;;;;;;5135171;27;20435;-62
2023/09/13 02:25:21;;;;;;;6.17;5.57;;;;;;;;;;5135124;27;20496;-62
2023/09/13 02:27:48;;;;;;;8.60;6.20;;;;;;;;;;5135106;27;20437;-62
2023/09/13 02:30:15;;;;;;;7.10;5.83;;;;;;;;;;5134952;27;20448;-63
2023/09/13 02:32:42;;;;;;;5.97;5.30;;;;;;;;;;5135084;27;20843;-63
2023/09/13 02:35:11;;;;;;;5.77;5.17;;;;;;;;;;5135242;27;20466;-63
2023/09/13 02:37:38;;;;;;;7.50;6.20;;;;;;;;;;5135107;27;20467;-63
2023/09/13 02:40:09;;;;;;;7.30;5.57;;;;;;;;;;5134739;27;20532;-63
2023/09/13 02:42:37;;;;;;;8.20;5.40;;;;;;;;;;5135293;27;20425;-63
2023/09/13 02:45:04;;;;;;;6.10;5.30;;;;;;;;;;5135092;27;20540;-63
2023/09/13 02:47:31;;;;;;;8.50;6.00;;;;;;;;;;5134711;27;21007;-63
2023/09/13 02:49:58;;;;;;;6.77;5.70;;;;;;;;;;5134552;27;20451;-63
2023/09/13 02:52:30;;;;;;;5.63;5.10;;;;;;;;;;5134655;27;20952;-63
2023/09/13 02:54:57;;;;;;;8.03;5.50;;;;;;;;;;5135067;27;20459;-63
2023/09/13 02:57:26;;;;;;;5.40;4.90;;;;;;;;;;5134785;27;20509;-63
2023/09/13 02:59:53;;;;;;;6.70;5.20;;;;;;;;;;5134864;27;20438;-63
2023/09/13 03:02:21;;;;;;;7.17;5.00;;;;;;;;;;5134708;27;20531;-63
2023/09/13 03:04:51;;;;;;;7.07;5.37;;;;;;;;;;5134340;27;20476;-63
2023/09/13 03:07:18;;;;;;;5.80;5.20;;;;;;;;;;5134274;27;20440;-63
2023/09/13 03:09:45;;;;;;;5.40;5.00;;;;;;;;;;5134561;27;20436;-63
2023/09/13 03:12:12;;;;;;;6.20;5.60;;;;;;;;;;5134151;27;20440;-63
2023/09/13 03:14:41;;;;;;;7.80;5.30;;;;;;;;;;5134643;27;20822;-63
2023/09/13 03:17:11;;;;;;;5.10;4.70;;;;;;;;;;5134462;27;20451;-63
2023/09/13 03:19:38;;;;;;;5.90;4.80;;;;;;;;;;5134481;27;20810;-63
2023/09/13 03:22:05;;;;;;;6.20;5.60;;;;;;;;;;5134310;27;20441;-63
2023/09/13 03:24:33;;;;;;;5.77;5.27;;;;;;;;;;5134035;27;20481;-63
2023/09/13 03:27:00;;;;;;;4.43;4.03;;;;;;;;;;5134437;27;20446;-63
2023/09/13 03:29:27;;;;;;;6.13;4.67;;;;;;;;;;5134061;27;20437;-63
2023/09/13 03:31:55;;;;;;;5.57;5.07;;;;;;;;;;5133941;27;20917;-63
2023/09/13 03:34:23;;;;;;;5.43;5.03;;;;;;;;;;5134275;27;20534;-63
2023/09/13 03:36:50;;;;;;;5.23;4.80;;;;;;;;;;5134186;27;20438;-63
2023/09/13 03:39:17;;;;;;;5.43;4.87;;;;;;;;;;5134452;27;20441;-66
2023/09/13 03:41:44;;;;;;;4.63;4.33;;;;;;;;;;5133791;27;20536;-62
2023/09/13 03:44:11;;;;;;;5.07;4.67;;;;;;;;;;5133732;27;20955;-63
2023/09/13 03:46:38;;;;;;;7.30;6.60;;;;;;;;;;5134043;27;20441;-63
2023/09/13 03:49:07;;;;;;;8.07;6.50;;;;;;;;;;5133596;27;20438;-63
2023/09/13 03:51:35;;;;;;;7.33;6.60;;;;;;;;;;5134026;28;20467;-63
2023/09/13 03:54:02;;;;;;;9.27;8.37;;;;;;;;;;5134091;28;20452;-64
2023/09/13 03:56:29;;;;;;;8.90;8.00;;;;;;;;;;5132986;28;20528;-63
2023/09/13 03:58:56;;;;;;;9.47;8.53;;;;;;;;;;5133022;28;20448;-63
2023/09/13 04:01:24;;;;;;;13.97;11.13;;;;;;;;;;5132719;28;20467;-63
2023/09/13 04:03:51;;;;;;;10.70;9.70;;;;;;;;;;5133219;28;20438;-63
2023/09/13 04:06:19;;;;;;;10.83;9.70;;;;;;;;;;5132675;28;20484;-63
2023/09/13 04:08:47;;;;;;;10.70;8.20;;;;;;;;;;5132817;28;20434;-63
2023/09/13 04:11:14;;;;;;;9.47;8.30;;;;;;;;;;5132773;28;20935;-63
2023/09/13 04:13:41;;;;;;;10.17;9.20;;;;;;;;;;5133428;28;20793;-63
2023/09/13 04:16:09;;;;;;;10.83;9.73;;;;;;;;;;5133173;28;20450;-63
2023/09/13 04:18:36;;;;;;;12.20;10.77;;;;;;;;;;5133607;28;20429;-63
2023/09/13 04:21:03;;;;;;;14.80;10.60;;;;;;;;;;5133435;28;20441;-63
2023/09/13 04:23:32;;;;;;;11.50;10.40;;;;;;;;;;5133253;28;20528;-63
2023/09/13 04:25:59;;;;;;;14.60;11.30;;;;;;;;;;5132953;28;20458;-63
2023/09/13 04:28:26;;;;;;;13.93;11.83;;;;;;;;;;5133600;28;20866;-63
2023/09/13 04:30:53;;;;;;;12.37;11.07;;;;;;;;;;5133988;28;20472;-63
2023/09/13 04:33:41;;;;;;;12.87;11.40;;;;;;;;;;5132814;28;20437;-63
2023/09/13 04:36:08;;;;;;;10.60;9.13;;;;;;;;;;5132439;28;20452;-63
2023/09/13 04:38:36;;;;;;;11.43;10.23;;;;;;;;;;5133158;28;20868;-63
2023/09/13 04:41:05;;;;;;;9.53;8.50;;;;;;;;;;5133370;28;20482;-63
2023/09/13 04:43:32;;;;;;;11.87;10.03;;;;;;;;;;5133110;28;20957;-63
2023/09/13 04:45:59;;;;;;;13.80;10.27;;;;;;;;;;5133270;28;20475;-63
2023/09/13 04:48:26;;;;;;;10.93;9.57;;;;;;;;;;5133350;28;20442;-63
2023/09/13 04:50:54;;;;;;;11.67;9.43;;;;;;;;;;5133057;28;20440;-64
2023/09/13 04:53:21;;;;;;;11.57;9.30;;;;;;;;;;5133369;28;20785;-63
2023/09/13 04:55:50;;;;;;;10.40;9.40;;;;;;;;;;5132920;28;20539;-63
2023/09/13 04:58:17;;;;;;;9.80;8.80;;;;;;;;;;5129528;28;20528;-67
2023/09/13 05:00:44;;;;;;;10.37;9.27;;;;;;;;;;5112644;28;20533;-69
2023/09/13 05:03:11;;;;;;;9.53;8.50;;;;;;;;;;5115954;28;20521;-68
2023/09/13 05:05:41;;;;;;;12.80;9.13;;;;;;;;;;5116336;28;20477;-67
2023/09/13 05:08:08;;;;;;;12.60;9.70;;;;;;;;;;5116556;28;20442;-66
2023/09/13 05:10:35;;;;;;;10.23;9.00;;;;;;;;;;5115907;28;20527;-65
2023/09/13 05:13:03;;;;;;;11.43;9.47;;;;;;;;;;5115869;28;20944;-65
2023/09/13 05:15:31;;;;;;;11.43;10.10;;;;;;;;;;5115998;28;20436;-65
2023/09/13 05:17:58;;;;;;;12.53;9.83;;;;;;;;;;5115878;28;20445;-65
2023/09/13 05:20:26;;;;;;;13.13;11.00;;;;;;;;;;5116075;28;20439;-65
2023/09/13 05:22:53;;;;;;;12.57;11.37;;;;;;;;;;5116154;28;20482;-65
2023/09/13 05:25:21;;;;;;;12.83;10.67;;;;;;;;;;5115993;28;20493;-66
2023/09/13 05:27:48;;;;;;;16.30;13.10;;;;;;;;;;5114702;27;20942;-66
2023/09/13 05:30:16;;;;;;;19.83;11.70;;;;;;;;;;5115727;28;20796;-65
2023/09/13 05:32:44;;;;;;;14.80;11.30;;;;;;;;;;5115816;28;20443;-65
2023/09/13 05:35:12;;;;;;;14.90;11.07;;;;;;;;;;5115479;28;20446;-65
2023/09/13 05:37:39;;;;;;;14.20;10.97;;;;;;;;;;5115863;28;20525;-65
2023/09/13 05:40:07;;;;;;;15.97;11.20;;;;;;;;;;5115433;28;20442;-66
2023/09/13 05:42:34;;;;;;;15.70;11.60;;;;;;;;;;5115233;28;21044;-66
2023/09/13 05:45:02;;;;;;;13.80;10.43;;;;;;;;;;5115594;28;20437;-66
2023/09/13 05:47:31;;;;;;;14.50;11.60;;;;;;;;;;5115849;28;20799;-66
2023/09/13 05:49:58;;;;;;;18.23;11.57;;;;;;;;;;5115622;28;20816;-66
2023/09/13 05:52:25;;;;;;;19.07;12.47;;;;;;;;;;5115602;28;20441;-67
2023/09/13 05:54:52;;;;;;;14.93;12.63;;;;;;;;;;5115197;28;20449;-66
2023/09/13 05:57:19;;;;;;;16.73;13.23;;;;;;;;;;5124538;27;20448;-66
2023/09/13 05:59:47;;;;;;;19.50;14.53;;;;;;;;;;5135446;27;20478;-66
2023/09/13 06:02:14;;;;;;;17.77;13.60;;;;;;;;;;5135876;27;20441;-67
2023/09/13 06:04:42;;;;;;;16.80;13.20;;;;;;;;;;5135691;27;20433;-67
2023/09/13 06:07:09;;;;;;;17.87;14.67;;;;;;;;;;5135222;27;20490;-66
2023/09/13 06:09:37;;;;;;;17.27;13.57;;;;;;;;;;5135279;27;20455;-66
2023/09/13 06:12:04;;;;;;;19.87;13.87;;;;;;;;;;5135233;27;20859;-66
2023/09/13 06:14:31;;;;;;;18.53;14.30;;;;;;;;;;5135442;27;20430;-66
2023/09/13 06:16:59;;;;;;;20.10;14.40;;;;;;;;;;5135507;27;20446;-66
2023/09/13 06:19:26;;;;;;;19.93;15.80;;;;;;;;;;5135296;27;20431;-66
2023/09/13 06:21:55;;;;;;;21.17;17.10;;;;;;;;;;5135672;27;20439;-66
2023/09/13 06:24:22;;;;;;;18.80;15.40;;;;;;;;;;5135252;27;20484;-66
2023/09/13 06:26:49;;;;;;;25.57;15.93;;;;;;;;;;5134674;27;20480;-66
2023/09/13 06:29:16;;;;;;;23.93;17.37;;;;;;;;;;5135566;27;20774;-66
2023/09/13 06:31:43;;;;;;;24.50;17.33;;;;;;;;;;5135348;27;20463;-66
2023/09/13 06:34:10;;;;;;;25.43;17.47;;;;;;;;;;5135118;27;20520;-67
2023/09/13 06:36:38;;;;;;;25.97;17.30;;;;;;;;;;5134491;27;20446;-67
2023/09/13 06:39:06;;;;;;;26.47;18.90;;;;;;;;;;5134839;27;20952;-67
2023/09/13 06:41:33;;;;;;;25.10;19.97;;;;;;;;;;5134290;27;20526;-66
2023/09/13 06:44:01;;;;;;;29.87;20.17;;;;;;;;;;5134716;27;20442;-66
2023/09/13 06:46:28;;;;;;;24.77;20.33;;;;;;;;;;5134742;27;20771;-66
2023/09/13 06:48:55;;;;;;;28.23;20.30;;;;;;;;;;5134169;27;20462;-66
2023/09/13 06:51:22;;;;;;;25.57;20.40;;;;;;;;;;5133825;27;20445;-66
2023/09/13 06:53:50;;;;;;;25.90;20.33;;;;;;;;;;5134600;27;20819;-66
2023/09/13 06:56:18;;;;;;;29.70;20.77;;;;;;;;;;5134011;27;20449;-66
2023/09/13 06:58:46;;;;;;;27.53;21.20;;;;;;;;;;5134328;27;20476;-66
2023/09/13 07:01:13;;;;;;;29.50;21.37;;;;;;;;;;5134599;27;20543;-66
2023/09/13 07:03:40;;;;;;;32.93;22.90;;;;;;;;;;5134187;27;20437;-66
2023/09/13 07:06:08;;;;;;;32.37;23.30;;;;;;;;;;5134445;27;20832;-66
2023/09/13 07:08:35;;;;;;;33.07;21.67;;;;;;;;;;5134261;27;20444;-66
2023/09/13 07:11:02;;;;;;;33.00;23.97;;;;;;;;;;5134737;27;20434;-66
2023/09/13 07:13:31;;;;;;;34.07;24.87;;;;;;;;;;5134514;27;20804;-66
2023/09/13 07:15:58;;;;;;;29.73;24.23;;;;;;;;;;5134389;27;20452;-66
2023/09/13 07:18:25;;;;;;;35.40;24.63;;;;;;;;;;5134360;27;20443;-67
2023/09/13 07:20:52;;;;;;;37.20;26.40;;;;;;;;;;5134085;27;20866;-67
2023/09/13 07:23:19;;;;;;;33.33;24.20;;;;;;;;;;5134326;27;20429;-67
2023/09/13 07:25:48;;;;;;;33.80;25.60;;;;;;;;;;5133623;27;20481;-66
2023/09/13 07:28:16;;;;;;;34.47;23.77;;;;;;;;;;5133984;27;20447;-66
2023/09/13 07:30:45;;;;;;;34.50;25.77;;;;;;;;;;5133906;27;20441;-66
2023/09/13 07:33:12;;;;;;;28.90;23.90;;;;;;;;;;5133766;27;20433;-66
2023/09/13 07:35:39;;;;;;;31.37;24.83;;;;;;;;;;5133768;27;20809;-66
2023/09/13 07:38:06;;;;;;;29.20;24.50;;;;;;;;;;5133492;27;21032;-66
2023/09/13 07:40:33;;;;;;;30.57;23.20;;;;;;;;;;5133472;27;20437;-67
2023/09/13 07:43:01;;;;;;;27.20;22.27;;;;;;;;;;5133707;27;20931;-65
2023/09/13 07:45:31;;;;;;;28.53;23.40;;;;;;;;;;5133890;27;20537;-66
2023/09/13 07:48:02;;;;;;;28.97;21.63;;;;;;;;;;5134230;28;20804;-65
2023/09/13 07:50:29;;;;;;;31.93;24.37;;;;;;;;;;5133785;28;20828;-65
2023/09/13 07:52:57;;;;;;;32.47;23.40;;;;;;;;;;5133818;28;20438;-65
2023/09/13 07:55:24;;;;;;;29.87;24.20;;;;;;;;;;5133242;28;20529;-66
2023/09/13 07:57:51;;;;;;;29.50;24.03;;;;;;;;;;5133559;28;20448;-65
2023/09/13 08:00:19;;;;;;;33.57;26.00;;;;;;;;;;5133266;28;20612;-65
2023/09/13 08:02:46;;;;;;;175.60;40.10;;;;;;;;;;5133741;28;20433;-65
2023/09/13 08:05:15;;;;;;;40.00;25.50;;;;;;;;;;5134190;28;20452;-65
2023/09/13 08:07:42;;;;;;;33.80;25.10;;;;;;;;;;5133905;28;20478;-64
2023/09/13 08:10:09;;;;;;;39.63;25.73;;;;;;;;;;5133639;28;20536;-65
2023/09/13 08:12:36;;;;;;;34.37;25.63;;;;;;;;;;5133813;28;20529;-65
2023/09/13 08:15:04;;;;;;;33.10;25.53;;;;;;;;;;5133512;28;20436;-65
2023/09/13 08:17:31;;;;;;;36.60;25.07;;;;;;;;;;5133469;28;20453;-65
2023/09/13 08:19:58;;;;;;;35.07;26.97;;;;;;;;;;5133631;28;20437;-65
2023/09/13 08:22:27;;;;;;;37.17;26.00;;;;;;;;;;5133321;28;20558;-65
2023/09/13 08:24:54;;;;;;;35.77;24.47;;;;;;;;;;5120678;28;20467;-65
2023/09/13 08:27:21;;;;;;;44.33;29.53;;;;;;;;;;5102449;28;20482;-65
2023/09/13 08:29:48;;;;;;;44.17;29.20;;;;;;;;;;5092216;28;20466;-65
2023/09/13 08:32:16;;;;;;;47.77;30.80;;;;;;;;;;5092402;28;20936;-65
2023/09/13 08:34:43;;;;;;;54.47;28.97;;;;;;;;;;5092537;28;20440;-65
2023/09/13 08:37:10;;;;;;;48.47;34.77;;;;;;;;;;5095869;28;20442;-65
2023/09/13 08:39:39;;;;;;;62.00;37.77;;;;;;;;;;5095943;28;20526;-65
2023/09/13 08:42:06;;;;;;;50.40;37.00;;;;;;;;;;5096538;28;20439;-65
2023/09/13 08:44:35;;;;;;;59.60;38.07;;;;;;;;;;5096060;28;20450;-65
2023/09/13 08:47:04;;;;;;;55.93;37.73;;;;;;;;;;5095821;28;20497;-65
2023/09/13 08:49:33;;;;;;;57.73;38.20;;;;;;;;;;5095954;28;20474;-65
2023/09/13 08:52:00;;;;;;;49.97;37.60;;;;;;;;;;5095336;28;20424;-65
2023/09/13 08:54:27;;;;;;;52.10;35.73;;;;;;;;;;5095725;28;20447;-65
2023/09/13 08:56:57;;;;;;;53.50;36.57;;;;;;;;;;5095313;28;20891;-65
2023/09/13 08:59:24;;;;;;;50.47;34.63;;;;;;;;;;5095736;28;20548;-65
2023/09/13 09:01:53;;;;;;;52.43;37.47;;;;;;;;;;5095498;28;20863;-65
2023/09/13 09:04:21;;;;;;;50.00;34.43;;;;;;;;;;5095132;28;20924;-65
2023/09/13 09:06:48;;;;;;;50.90;36.30;;;;;;;;;;5095519;28;20595;-65
2023/09/13 09:09:19;;;;;;;44.70;34.17;;;;;;;;;;5096031;28;20803;-65
2023/09/13 09:11:48;;;;;;;52.93;37.20;;;;;;;;;;5098193;28;20456;-65
2023/09/13 09:14:17;;;;;;;27.27;19.60;;;;;;;;;;5115958;28;20443;-64
2023/09/13 09:16:44;;;;;;;23.93;15.77;;;;;;;;;;5115836;28;20934;-64
2023/09/13 09:19:11;;;;;;;8.20;7.10;;;;;;;;;;5115758;28;20529;-64
2023/09/13 09:21:39;;;;;;;5.03;3.30;;;;;;;;;;5115713;28;20444;-63
2023/09/13 09:24:07;;;;;;;2.67;2.47;;;;;;;;;;5120387;27;20461;-64
2023/09/13 09:26:34;;;;;;;3.30;2.40;;;;;;;;;;5128502;27;21050;-63
2023/09/13 09:29:11;;;;;;;2.73;2.50;;;;;;;;;;5095010;28;20435;-63
2023/09/13 09:31:39;;;;;;;4.23;2.03;;;;;;;;;;5095022;28;20847;-63
2023/09/13 09:34:07;;;;;;;3.00;1.50;;;;;;;;;;5095438;28;20449;-63
2023/09/13 09:36:40;;;;;;;1.67;1.57;;;;;;;;;;5094690;28;20450;-63
2023/09/13 09:39:08;;;;;;;2.33;1.50;;;;;;;;;;5094871;28;20439;-63
2023/09/13 09:41:35;;;;;;;2.90;1.90;;;;;;;;;;5094895;28;20432;-63
2023/09/13 09:44:03;;;;;;;4.10;2.20;;;;;;;;;;5094688;28;20445;-63
2023/09/13 09:46:30;;;;;;;2.47;2.13;;;;;;;;;;5094355;28;20487;-63
2023/09/13 09:48:58;;;;;;;3.97;2.53;;;;;;;;;;5093867;28;20473;-63
2023/09/13 09:51:26;;;;;;;2.10;2.00;;;;;;;;;;5094673;28;20442;-63
2023/09/13 09:53:53;;;;;;;5.13;4.03;;;;;;;;;;5095199;28;20770;-63
2023/09/13 09:56:21;;;;;;;4.63;2.23;;;;;;;;;;5094556;28;20763;-63
2023/09/13 09:58:49;;;;;;;6.23;3.07;;;;;;;;;;5094455;28;20969;-63
2023/09/13 10:01:16;;;;;;;2.43;2.23;;;;;;;;;;5094866;28;20518;-64
2023/09/13 10:03:44;;;;;;;3.10;1.97;;;;;;;;;;5094499;28;20476;-63
2023/09/13 10:06:13;;;;;;;2.10;1.90;;;;;;;;;;5094475;28;20458;-63
2023/09/13 10:08:41;;;;;;;3.40;2.20;;;;;;;;;;5095083;28;20638;-64
2023/09/13 10:11:09;;;;;;;4.40;2.43;;;;;;;;;;5094758;28;20431;-63
2023/09/13 10:13:37;;;;;;;9.30;3.50;;;;;;;;;;5094866;28;20443;-64
2023/09/13 10:16:04;;;;;;;7.33;2.93;;;;;;;;;;5094257;28;20429;-64
2023/09/13 10:18:32;;;;;;;4.53;2.57;;;;;;;;;;5094802;28;20493;-63
2023/09/13 10:21:00;;;;;;;6.53;2.90;;;;;;;;;;5094352;28;20442;-64
2023/09/13 10:23:30;;;;;;;9.17;3.33;;;;;;;;;;5094321;28;20536;-64
2023/09/13 10:26:00;;;;;;;4.63;2.97;;;;;;;;;;5114164;28;20459;-64
2023/09/13 10:28:28;;;;;;;4.80;2.33;;;;;;;;;;5114452;28;20486;-64
2023/09/13 10:30:59;;;;;;;3.90;2.60;;;;;;;;;;5114902;28;20434;-64
2023/09/13 10:33:27;;;;;;;4.90;2.70;;;;;;;;;;5114512;28;20431;-63
2023/09/13 10:35:58;;;;;;;5.20;2.60;;;;;;;;;;5114772;28;20435;-64
2023/09/13 10:38:35;;;;;;;8.60;2.90;;;;;;;;;;5114817;28;20438;-64
2023/09/13 10:41:05;;;;;;;5.17;2.93;;;;;;;;;;5114498;28;20433;-64
2023/09/13 10:43:33;;;;;;;6.60;3.17;;;;;;;;;;5114649;28;20459;-64
2023/09/13 10:46:01;;;;;;;6.07;3.60;;;;;;;;;;5114585;28;20434;-63
2023/09/13 10:48:28;;;;;;;5.50;2.90;;;;;;;;;;5114499;28;20905;-63
2023/09/13 10:50:56;;;;;;;8.80;4.87;;;;;;;;;;5114487;28;20440;-64
2023/09/13 10:53:23;;;;;;;2.97;2.00;;;;;;;;;;5114328;28;20532;-64
2023/09/13 10:55:52;;;;;;;10.30;3.10;;;;;;;;;;5114188;28;20879;-63
2023/09/13 10:58:21;;;;;;;5.33;2.70;;;;;;;;;;5113622;28;20530;-64
2023/09/13 11:00:50;;;;;;;6.17;2.70;;;;;;;;;;5114182;28;20437;-64
2023/09/13 11:03:18;;;;;;;3.50;2.57;;;;;;;;;;5113816;28;20553;-63
2023/09/13 11:05:46;;;;;;;5.60;2.63;;;;;;;;;;5113908;28;20438;-63
2023/09/13 11:08:25;;;;;;;6.03;3.47;;;;;;;;;;5113970;28;20478;-62
2023/09/13 11:10:54;;;;;;;4.77;2.40;;;;;;;;;;5113921;28;20846;-63
2023/09/13 11:13:30;;;;;;;11.73;2.87;;;;;;;;;;5112802;28;20789;-62
2023/09/13 11:16:01;;;;;;;7.03;2.57;;;;;;;;;;5113667;28;20513;-63
2023/09/13 11:18:28;;;;;;;4.07;2.67;;;;;;;;;;5114051;28;20456;-63
2023/09/13 11:20:56;;;;;;;8.20;3.00;;;;;;;;;;5113538;28;20521;-63
2023/09/13 11:23:24;;;;;;;4.83;3.00;;;;;;;;;;5113492;28;20473;-64
2023/09/13 11:25:52;;;;;;;7.80;3.73;;;;;;;;;;5113412;28;20572;-63
2023/09/13 11:28:34;;;;;;;4.80;2.70;;;;;;;;;;5113006;28;21025;-63
2023/09/13 11:31:02;;;;;;;3.10;2.70;;;;;;;;;;5113349;28;20796;-63
2023/09/13 11:33:29;;;;;;;3.87;3.20;;;;;;;;;;5112899;28;20452;-62
2023/09/13 11:35:57;;;;;;;5.97;2.50;;;;;;;;;;5113188;28;20439;-62
2023/09/13 11:38:24;;;;;;;5.53;2.67;;;;;;;;;;5113434;28;20496;-63
2023/09/13 11:40:55;;;;;;;4.60;2.60;;;;;;;;;;5115340;28;20442;-63
2023/09/13 11:43:23;;;;;;;3.97;2.50;;;;;;;;;;5133596;27;20461;-63
2023/09/13 11:45:52;;;;;;;3.00;2.37;;;;;;;;;;5134057;27;20434;-63
2023/09/13 11:48:22;;;;;;;4.70;3.27;;;;;;;;;;5133838;27;20878;-63
2023/09/13 11:50:52;;;;;;;4.97;3.13;;;;;;;;;;5133801;28;20442;-62
2023/09/13 11:53:25;;;;;;;5.13;2.33;;;;;;;;;;5132883;28;20763;-62
2023/09/13 11:55:54;;;;;;;4.93;2.80;;;;;;;;;;5134348;28;20508;-62
2023/09/13 11:58:30;;;;;;;6.13;2.70;;;;;;;;;;5133460;28;20445;-63
2023/09/13 12:00:59;;;;;;;2.50;2.10;;;;;;;;;;5133650;28;20436;-63
2023/09/13 12:03:26;;;;;;;4.17;2.57;;;;;;;;;;5133553;28;20426;-63
2023/09/13 12:05:54;;;;;;;5.47;2.33;;;;;;;;;;5133341;28;20830;-63
2023/09/13 12:08:22;;;;;;;4.60;2.27;;;;;;;;;;5133562;28;20491;-63
2023/09/13 12:10:50;;;;;;;4.70;2.40;;;;;;;;;;5133145;27;20461;-63
2023/09/13 12:13:18;;;;;;;3.20;2.30;;;;;;;;;;5116146;28;20442;-63
2023/09/13 12:15:59;;;;;;;3.23;2.10;;;;;;;;;;5116731;28;20430;-63
2023/09/13 12:18:26;;;;;;;3.70;2.60;;;;;;;;;;5117143;28;20445;-64
2023/09/13 12:20:57;;;;;;;4.70;2.23;;;;;;;;;;5117251;28;20523;-63
2023/09/13 12:23:25;;;;;;;3.70;2.00;;;;;;;;;;5116905;28;20438;-63
2023/09/13 12:25:52;;;;;;;6.73;2.73;;;;;;;;;;5117396;28;20476;-63
2023/09/13 12:28:29;;;;;;;2.13;1.73;;;;;;;;;;5116954;28;21010;-63
2023/09/13 12:30:57;;;;;;;3.23;2.20;;;;;;;;;;5116731;28;20441;-63
2023/09/13 12:33:26;;;;;;;2.20;1.87;;;;;;;;;;5116397;28;20440;-63
2023/09/13 12:35:54;;;;;;;3.33;1.87;;;;;;;;;;5116861;28;20431;-63
2023/09/13 12:38:21;;;;;;;3.90;2.40;;;;;;;;;;5115992;28;20503;-63
2023/09/13 12:40:49;;;;;;;3.40;1.90;;;;;;;;;;5116459;28;20454;-63
2023/09/13 12:43:16;;;;;;;1.93;1.80;;;;;;;;;;5116331;28;20969;-63
2023/09/13 12:45:44;;;;;;;2.70;1.90;;;;;;;;;;5116556;28;20453;-63
2023/09/13 12:48:12;;;;;;;3.70;2.37;;;;;;;;;;5116196;28;20471;-61
2023/09/13 12:50:41;;;;;;;3.83;1.90;;;;;;;;;;5116744;28;20443;-62
2023/09/13 12:53:08;;;;;;;3.50;2.20;;;;;;;;;;5116245;28;20434;-61
2023/09/13 12:55:35;;;;;;;2.77;1.87;;;;;;;;;;5116479;28;20445;-61
2023/09/13 12:58:04;;;;;;;7.33;2.27;;;;;;;;;;5116350;28;20452;-62
2023/09/13 13:00:31;;;;;;;6.27;2.23;;;;;;;;;;5116188;28;20943;-62
2023/09/13 13:02:59;;;;;;;2.10;1.83;;;;;;;;;;5116228;28;20450;-62
2023/09/13 13:05:26;;;;;;;4.87;2.83;;;;;;;;;;5116072;28;20440;-62
2023/09/13 13:08:04;;;;;;;3.50;2.00;;;;;;;;;;5116403;28;20470;-62
2023/09/13 13:10:31;;;;;;;3.07;2.10;;;;;;;;;;5116453;28;20797;-62
2023/09/13 13:12:58;;;;;;;2.53;2.33;;;;;;;;;;5116118;28;20469;-62
2023/09/13 13:15:32;;;;;;;4.03;2.77;;;;;;;;;;5115808;28;21004;-62
2023/09/13 13:17:59;;;;;;;8.50;1.70;;;;;;;;;;5116599;28;20475;-62
2023/09/13 13:20:26;;;;;;;5.00;3.10;;;;;;;;;;5115722;28;20522;-62
2023/09/13 13:22:55;;;;;;;4.23;1.90;;;;;;;;;;5114881;28;20473;-62
2023/09/13 13:25:22;;;;;;;4.37;2.37;;;;;;;;;;5115875;28;20460;-62
2023/09/13 13:27:49;;;;;;;2.67;2.27;;;;;;;;;;5115678;28;20471;-62
2023/09/13 13:30:17;;;;;;;4.67;1.93;;;;;;;;;;5115541;28;20900;-63
2023/09/13 13:32:44;;;;;;;4.30;2.80;;;;;;;;;;5116178;28;20524;-62
2023/09/13 13:35:11;;;;;;;2.63;2.00;;;;;;;;;;5116074;28;20435;-62
2023/09/13 13:37:44;;;;;;;2.77;2.00;;;;;;;;;;5115503;28;20441;-62
2023/09/13 13:40:13;;;;;;;2.80;2.30;;;;;;;;;;5115617;28;20510;-62
2023/09/13 13:42:40;;;;;;;3.97;2.60;;;;;;;;;;5115858;28;20783;-62
2023/09/13 13:45:08;;;;;;;2.80;2.40;;;;;;;;;;5115672;28;20448;-62
2023/09/13 13:47:35;;;;;;;3.57;2.50;;;;;;;;;;5115500;28;20517;-62
2023/09/13 13:50:03;;;;;;;4.87;2.30;;;;;;;;;;5115466;28;20530;-62
2023/09/13 13:52:30;;;;;;;5.13;2.40;;;;;;;;;;5115487;28;20524;-62
2023/09/13 13:54:57;;;;;;;4.00;2.53;;;;;;;;;;5115188;28;20537;-62
2023/09/13 13:57:27;;;;;;;3.17;2.83;;;;;;;;;;5115223;28;20518;-62
2023/09/13 13:59:54;;;;;;;2.30;2.10;;;;;;;;;;5115387;28;20458;-62
2023/09/13 14:02:21;;;;;;;2.90;2.40;;;;;;;;;;5115428;28;20460;-62
2023/09/13 14:04:50;;;;;;;3.73;3.10;;;;;;;;;;5115205;28;20437;-62
2023/09/13 14:07:17;;;;;;;4.10;2.90;;;;;;;;;;5115342;28;20442;-62
2023/09/13 14:09:44;;;;;;;4.50;2.07;;;;;;;;;;5115076;28;20569;-62
2023/09/13 14:12:11;;;;;;;3.40;2.10;;;;;;;;;;5114856;28;20525;-62
2023/09/13 14:14:40;;;;;;;2.47;2.20;;;;;;;;;;5114678;28;20438;-62
2023/09/13 14:17:08;;;;;;;3.67;2.23;;;;;;;;;;5114782;28;20537;-62
2023/09/13 14:19:35;;;;;;;3.10;2.00;;;;;;;;;;5114600;28;20450;-62
2023/09/13 14:22:03;;;;;;;2.53;1.97;;;;;;;;;;5114687;28;20552;-62
2023/09/13 14:24:30;;;;;;;2.73;2.40;;;;;;;;;;5114542;28;20572;-62
2023/09/13 14:26:57;;;;;;;6.07;2.20;;;;;;;;;;5114874;28;20537;-62
2023/09/13 14:29:24;;;;;;;7.93;3.07;;;;;;;;;;5114282;28;21000;-62
2023/09/13 14:31:56;;;;;;;7.00;3.37;;;;;;;;;;5114379;28;20965;-62
2023/09/13 14:34:25;;;;;;;3.17;2.87;;;;;;;;;;5115067;28;20433;-62
2023/09/13 14:36:52;;;;;;;5.83;2.17;;;;;;;;;;5114818;28;20915;-62